createdAt,value
2022-08-03T00:02:19.599Z,18.52
2022-08-03T00:04:49.187Z,18.58
2022-08-03T00:07:16.665Z,18.57
2022-08-03T00:09:46.586Z,18.51
2022-08-03T00:12:13.879Z,18.47
2022-08-03T00:14:41.371Z,18.40
2022-08-03T00:17:09.146Z,18.38
2022-08-03T00:19:36.022Z,18.33
2022-08-03T00:22:03.087Z,18.28
2022-08-03T00:24:33.309Z,18.27
2022-08-03T00:27:00.309Z,18.22
2022-08-03T00:29:27.450Z,18.22
2022-08-03T00:31:59.593Z,18.22
2022-08-03T00:34:57.528Z,18.18
2022-08-03T00:37:20.334Z,18.15
2022-08-03T00:39:48.128Z,18.12
2022-08-03T00:42:17.775Z,18.12
2022-08-03T00:44:45.592Z,18.07
2022-08-03T00:47:13.309Z,18.02
2022-08-03T00:49:41.420Z,17.96
2022-08-03T00:52:10.655Z,17.94
2022-08-03T00:54:38.922Z,17.93
2022-08-03T00:57:07.408Z,17.92
2022-08-03T00:59:34.835Z,17.93
2022-08-03T01:02:01.815Z,17.96
2022-08-03T01:04:28.801Z,17.97
2022-08-03T01:07:10.696Z,17.97
2022-08-03T01:10:04.118Z,17.95
2022-08-03T01:12:43.408Z,17.93
2022-08-03T01:15:21.930Z,17.92
2022-08-03T01:18:27.668Z,17.89
2022-08-03T01:20:58.914Z,17.81
2022-08-03T01:23:48.128Z,17.74
2022-08-03T01:26:16.820Z,17.72
2022-08-03T01:29:10.031Z,17.72
2022-08-03T01:32:53.251Z,17.72
2022-08-03T01:34:36.870Z,17.74
2022-08-03T01:37:07.907Z,17.73
2022-08-03T01:39:41.279Z,17.71
2022-08-03T01:42:12.437Z,17.69
2022-08-03T01:44:43.231Z,17.69
2022-08-03T01:47:12.967Z,17.69
2022-08-03T01:49:45.404Z,17.69
2022-08-03T01:52:17.913Z,17.65
2022-08-03T01:54:48.862Z,17.66
2022-08-03T01:57:32.927Z,17.69
2022-08-03T02:00:20.984Z,17.68
2022-08-03T02:02:52.762Z,17.68
2022-08-03T02:05:27.813Z,17.67
2022-08-03T02:07:59.291Z,17.62
2022-08-03T02:10:34.962Z,17.62
2022-08-03T02:13:08.653Z,17.56
2022-08-03T02:15:38.548Z,17.52
2022-08-03T02:18:11.491Z,17.53
2022-08-03T02:20:40.850Z,17.52
2022-08-03T02:23:09.830Z,17.51
2022-08-03T02:25:45.182Z,17.47
2022-08-03T02:28:20.163Z,17.46
2022-08-03T02:30:55.841Z,17.46
2022-08-03T02:33:29.144Z,17.48
2022-08-03T02:36:01.870Z,17.43
2022-08-03T02:38:36.806Z,17.43
2022-08-03T02:41:14.188Z,17.38
2022-08-03T02:44:06.486Z,17.33
2022-08-03T02:46:43.440Z,17.34
2022-08-03T02:49:34.972Z,17.29
2022-08-03T02:52:13.091Z,17.25
2022-08-03T02:54:42.314Z,17.23
2022-08-03T02:57:13.289Z,17.19
2022-08-03T02:59:43.006Z,17.21
2022-08-03T03:02:12.767Z,17.18
2022-08-03T03:04:59.700Z,17.13
2022-08-03T03:07:51.182Z,17.13
2022-08-03T03:10:24.894Z,17.12
2022-08-03T03:12:57.555Z,17.10
2022-08-03T03:15:31.797Z,17.05
2022-08-03T03:18:03.686Z,17.08
2022-08-03T03:20:36.107Z,17.10
2022-08-03T03:23:05.331Z,17.09
2022-08-03T03:25:34.637Z,17.09
2022-08-03T03:28:04.149Z,17.08
2022-08-03T03:30:35.362Z,17.04
2022-08-03T03:33:03.543Z,17.03
2022-08-03T03:35:31.563Z,17.03
2022-08-03T03:38:06.900Z,16.98
2022-08-03T03:40:37.467Z,16.98
2022-08-03T03:43:10.226Z,16.97
2022-08-03T03:45:38.498Z,16.98
2022-08-03T03:48:09.082Z,16.99
2022-08-03T03:50:41.030Z,17.00
2022-08-03T03:53:13.383Z,16.97
2022-08-03T03:55:59.254Z,16.95
2022-08-03T03:58:28.384Z,16.95
2022-08-03T04:00:56.021Z,16.95
2022-08-03T04:03:24.637Z,16.96
2022-08-03T04:06:11.752Z,16.99
2022-08-03T04:08:59.405Z,16.99
2022-08-03T04:11:32.172Z,17.19
2022-08-03T04:14:08.249Z,17.12
2022-08-03T04:16:43.659Z,17.08
2022-08-03T04:19:24.973Z,17.08
2022-08-03T04:21:57.379Z,17.09
2022-08-03T04:24:28.223Z,17.14
2022-08-03T04:26:57.690Z,17.28
2022-08-03T04:29:26.880Z,17.28
2022-08-03T04:31:56.294Z,17.28
2022-08-03T04:34:29.034Z,17.32
2022-08-03T04:37:01.741Z,17.36
2022-08-03T04:39:35.007Z,17.47
2022-08-03T04:42:09.776Z,17.59
2022-08-03T04:44:41.679Z,17.64
2022-08-03T04:47:13.563Z,17.66
2022-08-03T04:49:41.209Z,17.69
2022-08-03T04:52:12.668Z,17.79
2022-08-03T04:54:45.818Z,17.84
2022-08-03T04:57:23.211Z,17.94
2022-08-03T05:00:01.423Z,18.09
2022-08-03T05:02:32.128Z,18.22
2022-08-03T05:05:00.675Z,18.35
2022-08-03T05:07:35.417Z,18.37
2022-08-03T05:10:15.060Z,18.47
2022-08-03T05:12:48.984Z,18.58
2022-08-03T05:15:16.400Z,18.74
2022-08-03T05:17:43.958Z,18.92
2022-08-03T05:20:12.088Z,19.10
2022-08-03T05:22:41.901Z,19.40
2022-08-03T05:25:09.152Z,21.44
2022-08-03T05:27:37.014Z,23.68
2022-08-03T05:30:29.772Z,24.23
2022-08-03T05:32:53.546Z,24.12
2022-08-03T05:35:57.286Z,23.59
2022-08-03T05:38:07.635Z,23.44
2022-08-03T05:40:36.867Z,23.61
2022-08-03T05:43:05.327Z,23.17
2022-08-03T05:45:33.033Z,22.84
2022-08-03T05:48:03.679Z,22.51
2022-08-03T05:50:30.886Z,22.38
2022-08-03T05:52:58.060Z,22.18
2022-08-03T05:55:25.791Z,22.14
2022-08-03T05:57:52.966Z,22.21
2022-08-03T06:00:24.307Z,21.95
2022-08-03T06:02:52.907Z,21.90
2022-08-03T06:05:19.936Z,21.98
2022-08-03T06:07:47.190Z,22.18
2022-08-03T06:10:36.427Z,22.48
2022-08-03T06:13:01.412Z,22.20
2022-08-03T06:15:28.559Z,22.09
2022-08-03T06:18:01.508Z,22.06
2022-08-03T06:20:31.498Z,22.76
2022-08-03T06:23:02.925Z,22.83
2022-08-03T06:25:32.613Z,22.67
2022-08-03T06:28:00.694Z,22.56
2022-08-03T06:30:28.089Z,22.62
2022-08-03T06:32:55.844Z,22.62
2022-08-03T06:35:23.832Z,22.78
2022-08-03T06:37:52.072Z,23.92
2022-08-03T06:40:28.835Z,24.31
2022-08-03T06:42:59.872Z,24.39
2022-08-03T06:45:31.821Z,25.16
2022-08-03T06:48:15.431Z,27.94
2022-08-03T06:50:44.776Z,29.72
2022-08-03T06:53:19.874Z,30.84
2022-08-03T06:55:53.867Z,31.15
2022-08-03T06:58:21.436Z,31.57
2022-08-03T07:00:48.556Z,32.45
2022-08-03T07:03:16.862Z,32.96
2022-08-03T07:05:46.948Z,33.38
2022-08-03T07:08:14.980Z,33.98
2022-08-03T07:10:42.764Z,34.34
2022-08-03T07:13:10.732Z,34.89
2022-08-03T07:15:55.421Z,35.65
2022-08-03T07:18:29.959Z,35.93
2022-08-03T07:21:00.056Z,36.11
2022-08-03T07:23:27.331Z,36.66
2022-08-03T07:25:54.329Z,37.28
2022-08-03T07:28:21.369Z,36.64
2022-08-03T07:30:48.600Z,36.99
2022-08-03T07:33:15.805Z,36.38
2022-08-03T07:35:43.251Z,36.54
2022-08-03T07:38:11.134Z,35.45
2022-08-03T07:40:44.442Z,36.08
2022-08-03T07:43:13.495Z,36.47
2022-08-03T07:45:40.609Z,36.36
2022-08-03T07:48:12.157Z,36.97
2022-08-03T07:50:39.848Z,36.73
2022-08-03T07:53:09.171Z,37.11
2022-08-03T07:55:36.530Z,36.80
2022-08-03T07:58:16.516Z,37.18
2022-08-03T08:00:47.464Z,37.90
2022-08-03T08:03:14.757Z,37.63
2022-08-03T08:05:41.773Z,37.67
2022-08-03T08:08:11.181Z,37.98
2022-08-03T08:10:41.536Z,38.35
2022-08-03T08:13:08.648Z,38.08
2022-08-03T08:15:35.814Z,38.60
2022-08-03T08:18:10.164Z,38.28
2022-08-03T08:20:40.183Z,38.36
2022-08-03T08:23:40.834Z,38.84
2022-08-03T08:25:57.017Z,38.87
2022-08-03T08:28:30.220Z,38.78
2022-08-03T08:31:01.586Z,38.81
2022-08-03T08:33:37.620Z,38.70
2022-08-03T08:36:15.822Z,38.79
2022-08-03T08:38:45.133Z,39.03
2022-08-03T08:41:13.943Z,39.45
2022-08-03T08:43:42.163Z,38.97
2022-08-03T08:46:13.153Z,39.31
2022-08-03T08:48:52.070Z,39.49
2022-08-03T08:51:24.538Z,39.32
2022-08-03T08:54:12.907Z,39.16
2022-08-03T08:56:40.020Z,38.93
2022-08-03T08:59:07.654Z,39.13
2022-08-03T09:01:34.970Z,38.99
2022-08-03T09:04:02.784Z,38.63
2022-08-03T09:06:29.937Z,38.68
2022-08-03T09:08:57.274Z,39.48
2022-08-03T09:11:53.355Z,39.24
2022-08-03T09:14:35.322Z,38.46
2022-08-03T09:17:03.180Z,38.59
2022-08-03T09:19:32.140Z,38.24
2022-08-03T09:22:10.962Z,37.97
2022-08-03T09:24:43.486Z,38.11
2022-08-03T09:27:17.192Z,37.90
2022-08-03T09:29:52.295Z,37.91
2022-08-03T09:32:24.581Z,38.21
2022-08-03T09:34:57.819Z,38.39
2022-08-03T09:38:12.702Z,38.61
2022-08-03T09:40:36.681Z,38.74
2022-08-03T09:43:03.639Z,38.24
2022-08-03T09:45:30.966Z,38.27
2022-08-03T09:48:29.604Z,38.34
2022-08-03T09:51:13.111Z,37.86
2022-08-03T09:53:59.143Z,36.94
2022-08-03T09:56:45.737Z,37.70
2022-08-03T09:59:22.942Z,37.55
2022-08-03T10:01:50.153Z,37.77
2022-08-03T10:04:17.262Z,37.29
2022-08-03T10:07:06.280Z,36.97
2022-08-03T10:09:33.727Z,37.52
2022-08-03T10:12:09.068Z,38.05
2022-08-03T10:14:42.033Z,37.78
2022-08-03T10:17:12.326Z,37.38
2022-08-03T10:19:41.345Z,37.80
2022-08-03T10:22:14.845Z,38.06
2022-08-03T10:25:18.191Z,37.90
2022-08-03T10:27:51.732Z,37.84
2022-08-03T10:30:19.208Z,37.74
2022-08-03T10:33:00.119Z,37.50
2022-08-03T10:35:27.333Z,37.27
2022-08-03T10:38:12.554Z,36.95
2022-08-03T10:40:48.575Z,35.92
2022-08-03T10:43:31.723Z,35.48
2022-08-03T10:46:03.150Z,35.61
2022-08-03T10:48:33.119Z,35.78
2022-08-03T10:51:00.343Z,35.13
2022-08-03T10:53:42.479Z,35.46
2022-08-03T10:56:54.439Z,35.83
2022-08-03T10:59:49.594Z,35.69
2022-08-03T11:02:19.152Z,35.72
2022-08-03T11:04:46.910Z,35.95
2022-08-03T11:07:27.317Z,35.67
2022-08-03T11:09:58.487Z,35.25
2022-08-03T11:12:31.462Z,35.42
2022-08-03T11:15:06.758Z,35.08
2022-08-03T11:17:46.746Z,34.40
2022-08-03T11:20:48.345Z,34.55
2022-08-03T11:23:17.093Z,34.74
2022-08-03T11:26:12.504Z,34.88
2022-08-03T11:28:40.513Z,35.20
2022-08-03T11:31:48.006Z,35.03
2022-08-03T11:34:11.854Z,35.18
2022-08-03T11:37:16.908Z,34.61
2022-08-03T11:39:46.505Z,33.90
2022-08-03T11:42:22.139Z,33.43
2022-08-03T11:44:57.409Z,33.61
2022-08-03T11:47:29.927Z,33.40
2022-08-03T11:50:02.191Z,33.14
2022-08-03T11:52:38.855Z,32.97
2022-08-03T11:55:11.275Z,32.93
2022-08-03T11:59:01.719Z,32.87
2022-08-03T12:00:34.748Z,32.65
2022-08-03T12:03:09.475Z,32.51
2022-08-03T12:05:51.759Z,32.48
2022-08-03T12:08:40.845Z,32.14
2022-08-03T12:11:12.077Z,32.15
2022-08-03T12:14:45.213Z,32.14
2022-08-03T12:16:32.478Z,31.80
2022-08-03T12:19:01.988Z,31.83
2022-08-03T12:21:30.159Z,31.66
2022-08-03T12:24:03.046Z,31.57
2022-08-03T12:26:58.518Z,31.65
2022-08-03T12:29:26.465Z,31.56
2022-08-03T12:31:53.765Z,31.67
2022-08-03T12:34:20.982Z,31.70
2022-08-03T12:36:57.837Z,31.73
2022-08-03T12:39:28.006Z,31.62
2022-08-03T12:41:56.263Z,31.74
2022-08-03T12:44:33.959Z,31.72
2022-08-03T12:47:02.867Z,31.68
2022-08-03T12:49:45.822Z,31.59
2022-08-03T12:52:13.154Z,31.43
2022-08-03T12:54:40.408Z,31.53
2022-08-03T12:57:10.508Z,31.69
2022-08-03T12:59:49.875Z,31.54
2022-08-03T13:02:26.260Z,31.52
2022-08-03T13:04:54.802Z,31.51
2022-08-03T13:07:25.123Z,31.35
2022-08-03T13:09:54.545Z,31.27
2022-08-03T13:12:24.549Z,31.43
2022-08-03T13:15:01.103Z,31.48
2022-08-03T13:17:28.665Z,31.30
2022-08-03T13:19:56.468Z,31.29
2022-08-03T13:22:33.053Z,31.25
2022-08-03T13:25:03.198Z,31.03
2022-08-03T13:28:04.930Z,30.99
2022-08-03T13:30:24.967Z,30.98
2022-08-03T13:32:58.806Z,30.86
2022-08-03T13:35:26.337Z,30.94
2022-08-03T13:37:53.532Z,30.95
2022-08-03T13:40:23.603Z,30.98
2022-08-03T13:42:51.090Z,31.09
2022-08-03T13:45:18.070Z,31.11
2022-08-03T13:47:47.558Z,31.13
2022-08-03T13:50:15.434Z,31.07
2022-08-03T13:52:46.321Z,30.96
2022-08-03T13:55:16.620Z,30.88
2022-08-03T13:58:04.731Z,30.91
2022-08-03T14:00:31.162Z,30.86
2022-08-03T14:03:13.639Z,30.87
2022-08-03T14:05:42.507Z,30.88
2022-08-03T14:08:10.266Z,30.97
2022-08-03T14:10:40.355Z,30.99
2022-08-03T14:13:08.782Z,30.94
2022-08-03T14:15:37.808Z,31.16
2022-08-03T14:18:15.398Z,31.20
2022-08-03T14:20:49.110Z,31.15
2022-08-03T14:23:18.998Z,31.12
2022-08-03T14:25:52.509Z,31.12
2022-08-03T14:28:24.060Z,31.14
2022-08-03T14:30:53.906Z,31.15
2022-08-03T14:33:24.190Z,31.20
2022-08-03T14:35:56.906Z,31.23
2022-08-03T14:38:24.705Z,31.14
2022-08-03T14:40:53.139Z,31.12
2022-08-03T14:43:22.844Z,31.15
2022-08-03T14:45:53.753Z,31.07
2022-08-03T14:50:30.563Z,30.98
2022-08-03T14:51:10.302Z,30.86
2022-08-03T14:53:39.706Z,30.86
2022-08-03T14:56:10.498Z,30.89
2022-08-03T14:58:38.710Z,30.93
2022-08-03T15:02:05.332Z,30.90
2022-08-03T15:03:54.719Z,30.79
2022-08-03T15:06:24.465Z,30.77
2022-08-03T15:09:21.737Z,30.69
2022-08-03T15:11:42.004Z,30.72
2022-08-03T15:14:09.643Z,30.75
2022-08-03T15:16:37.806Z,30.73
2022-08-03T15:20:00.218Z,30.62
2022-08-03T15:21:52.728Z,30.66
2022-08-03T15:24:20.645Z,30.67
2022-08-03T15:26:48.730Z,30.70
2022-08-03T15:30:07.176Z,30.67
2022-08-03T15:32:06.128Z,30.56
2022-08-03T15:34:36.101Z,30.49
2022-08-03T15:37:04.331Z,30.35
2022-08-03T15:39:58.902Z,30.34
2022-08-03T15:42:32.671Z,30.34
2022-08-03T15:45:02.519Z,30.36
2022-08-03T15:47:29.981Z,30.32
2022-08-03T15:49:58.950Z,30.28
2022-08-03T15:52:25.921Z,30.24
2022-08-03T15:54:55.458Z,30.23
2022-08-03T15:57:22.958Z,30.30
2022-08-03T15:59:50.251Z,30.25
2022-08-03T16:02:20.085Z,30.17
2022-08-03T16:04:47.313Z,30.08
2022-08-03T16:07:15.901Z,30.06
2022-08-03T16:09:44.065Z,29.93
2022-08-03T16:12:15.425Z,29.86
2022-08-03T16:14:52.364Z,29.88
2022-08-03T16:17:20.574Z,29.88
2022-08-03T16:19:48.087Z,29.82
2022-08-03T16:22:15.195Z,29.80
2022-08-03T16:24:42.392Z,29.78
2022-08-03T16:27:25.040Z,29.85
2022-08-03T16:29:59.095Z,29.74
2022-08-03T16:32:26.090Z,29.70
2022-08-03T16:34:53.085Z,29.71
2022-08-03T16:37:38.316Z,29.66
2022-08-03T16:40:17.460Z,29.51
2022-08-03T16:42:47.541Z,29.41
2022-08-03T16:45:14.621Z,29.35
2022-08-03T16:47:41.816Z,29.41
2022-08-03T16:50:18.960Z,29.37
2022-08-03T16:52:47.264Z,29.24
2022-08-03T16:55:49.022Z,29.26
2022-08-03T16:58:07.460Z,29.19
2022-08-03T17:00:41.259Z,29.07
2022-08-03T17:03:12.583Z,28.97
2022-08-03T17:05:52.932Z,28.94
2022-08-03T17:08:26.807Z,28.82
2022-08-03T17:10:55.850Z,28.74
2022-08-03T17:13:38.794Z,28.72
2022-08-03T17:16:09.576Z,28.69
2022-08-03T17:18:47.567Z,28.64
2022-08-03T17:21:16.183Z,28.70
2022-08-03T17:23:50.421Z,28.63
2022-08-03T17:26:21.982Z,28.47
2022-08-03T17:28:58.168Z,28.31
2022-08-03T17:31:31.312Z,28.19
2022-08-03T17:34:01.817Z,28.07
2022-08-03T17:36:53.970Z,28.10
2022-08-03T17:39:17.945Z,28.01
2022-08-03T17:41:49.974Z,27.88
2022-08-03T17:44:35.116Z,27.76
2022-08-03T17:47:06.671Z,27.69
2022-08-03T17:49:40.183Z,27.54
2022-08-03T17:52:20.171Z,27.41
2022-08-03T17:55:55.335Z,27.26
2022-08-03T17:58:17.026Z,27.11
2022-08-03T18:01:57.530Z,26.97
2022-08-03T18:03:58.490Z,26.77
2022-08-03T18:06:31.683Z,26.61
2022-08-03T18:09:00.156Z,26.47
2022-08-03T18:11:35.601Z,26.34
2022-08-03T18:14:29.508Z,26.23
2022-08-03T18:17:01.678Z,26.06
2022-08-03T18:20:03.506Z,25.89
2022-08-03T18:22:20.770Z,25.72
2022-08-03T18:24:52.744Z,25.55
2022-08-03T18:27:21.075Z,25.39
2022-08-03T18:29:52.026Z,25.29
2022-08-03T18:32:19.103Z,25.10
2022-08-03T18:34:53.652Z,24.95
2022-08-03T18:37:25.098Z,24.75
2022-08-03T18:39:55.927Z,24.59
2022-08-03T18:42:26.952Z,24.46
2022-08-03T18:44:56.310Z,24.38
2022-08-03T18:47:50.601Z,24.30
2022-08-03T18:50:34.092Z,24.28
2022-08-03T18:54:04.089Z,24.15
2022-08-03T18:56:31.578Z,24.01
2022-08-03T18:59:10.173Z,23.91
2022-08-03T19:04:49.802Z,23.77
2022-08-03T19:07:23.320Z,23.74
2022-08-03T19:09:55.844Z,23.62
2022-08-03T19:12:33.866Z,23.53
2022-08-03T19:15:10.375Z,23.54
2022-08-03T19:17:52.861Z,23.47
2022-08-03T19:20:35.245Z,23.33
2022-08-03T19:23:06.668Z,23.21
2022-08-03T19:25:38.670Z,23.17
2022-08-03T19:28:09.009Z,23.04
2022-08-03T19:30:39.431Z,22.95
2022-08-03T19:33:13.002Z,22.87
2022-08-03T19:35:55.355Z,22.80
2022-08-03T19:38:28.516Z,22.80
2022-08-03T19:41:03.222Z,22.69
2022-08-03T19:43:53.330Z,22.56
2022-08-03T19:46:30.076Z,22.50
2022-08-03T19:49:03.716Z,22.47
2022-08-03T19:52:02.267Z,22.44
2022-08-03T19:54:29.835Z,22.31
2022-08-03T19:57:02.902Z,22.31
2022-08-03T19:59:39.173Z,22.22
2022-08-03T20:02:26.034Z,22.12
2022-08-03T20:04:57.304Z,22.14
2022-08-03T20:07:26.431Z,21.99
2022-08-03T20:09:56.427Z,21.94
2022-08-03T20:12:47.748Z,21.84
2022-08-03T20:15:18.054Z,21.77
2022-08-03T20:17:54.297Z,21.79
2022-08-03T20:20:26.451Z,21.82
2022-08-03T20:22:57.529Z,21.75
2022-08-03T20:25:37.900Z,21.65
2022-08-03T20:28:26.638Z,21.59
2022-08-03T20:30:54.303Z,21.53
2022-08-03T20:33:27.607Z,21.43
2022-08-03T20:35:55.125Z,21.42
2022-08-03T20:38:27.274Z,21.33
2022-08-03T20:40:59.075Z,21.28
2022-08-03T20:43:30.727Z,21.26
2022-08-03T20:46:32.789Z,21.16
2022-08-03T20:48:48.977Z,21.07
2022-08-03T20:54:23.022Z,20.97
2022-08-03T20:57:04.107Z,20.97
2022-08-03T20:59:50.582Z,20.87
2022-08-03T21:02:30.140Z,20.81
2022-08-03T21:05:03.672Z,20.75
2022-08-03T21:08:05.217Z,20.71
2022-08-03T21:10:41.952Z,20.71
2022-08-03T21:13:11.154Z,23.82
2022-08-03T21:13:12.545Z,21.02
2022-08-03T21:13:23.623Z,20.72
2022-08-03T21:16:06.861Z,20.63
2022-08-03T21:18:46.097Z,20.53
2022-08-03T21:21:15.992Z,20.40
2022-08-03T21:23:47.895Z,20.31
2022-08-03T21:26:25.444Z,20.32
2022-08-03T21:28:55.650Z,20.27
2022-08-03T21:31:25.171Z,20.24
2022-08-03T21:33:55.582Z,20.24
2022-08-03T21:36:30.375Z,20.22
2022-08-03T21:39:01.062Z,20.21
2022-08-03T21:41:31.409Z,20.11
2022-08-03T21:44:00.335Z,20.00
2022-08-03T21:46:34.108Z,19.93
2022-08-03T21:50:04.390Z,19.85
2022-08-03T21:51:59.643Z,19.77
2022-08-03T21:54:35.283Z,19.73
2022-08-03T21:57:03.985Z,19.68
2022-08-03T21:59:37.172Z,19.71
2022-08-03T22:02:04.694Z,19.77
2022-08-03T22:04:50.302Z,19.73
2022-08-03T22:07:23.462Z,19.68
2022-08-03T22:09:58.398Z,19.72
2022-08-03T22:12:31.377Z,19.68
2022-08-03T22:15:03.567Z,19.61
2022-08-03T22:17:55.487Z,19.63
2022-08-03T22:20:22.920Z,19.52
2022-08-03T22:22:55.729Z,19.43
2022-08-03T22:25:29.314Z,19.36
2022-08-03T22:27:58.912Z,19.34
2022-08-03T22:30:26.007Z,19.38
2022-08-03T22:32:56.409Z,19.37
2022-08-03T22:35:26.068Z,19.32
2022-08-03T22:37:55.305Z,19.31
2022-08-03T22:40:22.491Z,19.25
2022-08-03T22:42:50.648Z,19.18
2022-08-03T22:46:05.992Z,19.15
2022-08-03T22:48:08.791Z,19.08
2022-08-03T22:50:35.995Z,19.02
2022-08-03T22:53:03.375Z,18.97
2022-08-03T22:55:31.225Z,18.93
2022-08-03T22:57:58.471Z,18.85
2022-08-03T23:00:25.820Z,18.82
2022-08-03T23:02:56.927Z,18.79
2022-08-03T23:06:02.060Z,18.76
2022-08-03T23:08:21.789Z,18.76
2022-08-03T23:10:50.648Z,18.75
2022-08-03T23:13:19.240Z,18.74
2022-08-03T23:15:55.224Z,18.80
2022-08-03T23:18:24.219Z,18.73
2022-08-03T23:20:58.716Z,18.69
2022-08-03T23:23:26.922Z,18.63
2022-08-03T23:25:54.365Z,18.59
2022-08-03T23:28:21.854Z,18.60
2022-08-03T23:30:50.873Z,18.58
2022-08-03T23:33:18.626Z,18.51
2022-08-03T23:36:29.698Z,18.45
2022-08-03T23:38:46.093Z,18.45
2022-08-03T23:41:18.733Z,18.38
2022-08-03T23:43:52.024Z,18.35
2022-08-03T23:46:24.488Z,18.29
2022-08-03T23:48:56.544Z,18.24
2022-08-03T23:51:48.662Z,18.19
2022-08-03T23:54:24.287Z,18.14
2022-08-03T23:56:55.432Z,18.13
2022-08-03T23:59:48.954Z,18.10
